Time;durP1;ratioP1;P1;durP2;ratioP2;P2;SDS_P1;SDS_P2;PMS_P1;PMS_P2;Temp;Humidity;BMP_temperature;BMP_pressure;BME280_temperature;BME280_humidity;BME280_pressure;Samples;Min_cycle;Max_cycle;Signal;HPM_P1;HPM_P2
2022/08/12 00:44:46;;;;;;;2.13;1.60;;;;;;;;;;5035001;28;20445;-81
2022/08/12 00:47:13;;;;;;;2.03;1.55;;;;;;;;;;5017150;28;20387;-81
2022/08/12 00:49:39;;;;;;;1.95;1.50;;;;;;;;;;5034802;28;20375;-81
2022/08/12 00:52:06;;;;;;;2.25;1.60;;;;;;;;;;5034698;28;20391;-81
2022/08/12 00:54:49;;;;;;;1.85;1.58;;;;;;;;;;5034799;28;20383;-81
2022/08/12 00:57:20;;;;;;;1.80;1.70;;;;;;;;;;5034855;28;20423;-81
2022/08/12 01:00:07;;;;;;;2.40;1.70;;;;;;;;;;5034740;28;20379;-81
2022/08/12 01:02:35;;;;;;;3.30;1.90;;;;;;;;;;5034811;28;20418;-81
2022/08/12 01:13:20;;;;;;;2.13;1.80;;;;;;;;;;5034626;28;20382;-81
2022/08/12 01:15:48;;;;;;;1.95;1.70;;;;;;;;;;5022707;28;20787;-81
2022/08/12 01:18:14;;;;;;;3.03;1.90;;;;;;;;;;5034392;28;20442;-81
2022/08/12 01:20:48;;;;;;;2.97;1.70;;;;;;;;;;5034461;28;20375;-81
2022/08/12 01:23:26;;;;;;;1.65;1.52;;;;;;;;;;5034347;28;20393;-81
2022/08/12 01:25:53;;;;;;;2.03;1.63;;;;;;;;;;5033882;28;21001;-81
2022/08/12 01:28:20;;;;;;;1.83;1.60;;;;;;;;;;5034061;28;20466;-81
2022/08/12 01:30:48;;;;;;;2.40;1.60;;;;;;;;;;5034001;28;20389;-81
2022/08/12 01:33:18;;;;;;;1.70;1.45;;;;;;;;;;5034061;28;20470;-81
2022/08/12 01:35:47;;;;;;;1.90;1.70;;;;;;;;;;5029960;28;20903;-81
2022/08/12 01:38:17;;;;;;;1.85;1.75;;;;;;;;;;5029726;28;20930;-81
2022/08/12 01:40:44;;;;;;;2.60;1.77;;;;;;;;;;5033424;28;20868;-81
2022/08/12 01:43:13;;;;;;;2.30;1.70;;;;;;;;;;5032518;28;20386;-81
2022/08/12 01:45:51;;;;;;;2.63;1.63;;;;;;;;;;5032683;28;20386;-81
2022/08/12 01:48:24;;;;;;;2.25;1.45;;;;;;;;;;5032246;28;20906;-81
2022/08/12 01:50:50;;;;;;;1.70;1.58;;;;;;;;;;5033909;28;20379;-81
2022/08/12 01:53:19;;;;;;;1.90;1.70;;;;;;;;;;5031554;28;20457;-81
2022/08/12 01:55:46;;;;;;;1.63;1.52;;;;;;;;;;5033595;28;20386;-81
2022/08/12 01:59:45;;;;;;;1.50;1.40;;;;;;;;;;5033549;28;20409;-81
2022/08/12 02:01:23;;;;;;;3.42;1.58;;;;;;;;;;5033405;28;20845;-81
2022/08/12 02:13:13;;;;;;;1.60;1.50;;;;;;;;;;5033429;28;20493;-81
2022/08/12 02:15:41;;;;;;;1.50;1.40;;;;;;;;;;4953163;29;20386;-81
2022/08/12 02:18:14;;;;;;;3.10;1.63;;;;;;;;;;5019009;28;20407;-81
2022/08/12 02:20:49;;;;;;;1.98;1.70;;;;;;;;;;5015918;28;20379;-81
2022/08/12 02:23:18;;;;;;;2.35;1.50;;;;;;;;;;5033661;28;20386;-81
2022/08/12 02:25:45;;;;;;;1.92;1.70;;;;;;;;;;5033194;28;20480;-81
2022/08/12 02:28:11;;;;;;;1.88;1.70;;;;;;;;;;5033109;28;20387;-81
2022/08/12 02:30:37;;;;;;;2.20;1.60;;;;;;;;;;5032647;28;20379;-81
2022/08/12 02:33:04;;;;;;;2.80;2.08;;;;;;;;;;5033232;28;20596;-81
2022/08/12 02:35:32;;;;;;;1.55;1.45;;;;;;;;;;5032988;28;20415;-81
2022/08/12 02:37:59;;;;;;;2.72;1.65;;;;;;;;;;5032975;28;20399;-81
2022/08/12 02:40:27;;;;;;;1.77;1.67;;;;;;;;;;5031897;28;20379;-81
2022/08/12 02:43:01;;;;;;;2.03;1.60;;;;;;;;;;5032499;28;20379;-81
2022/08/12 02:45:34;;;;;;;3.55;1.77;;;;;;;;;;5032743;28;20384;-81
2022/08/12 02:48:05;;;;;;;1.67;1.58;;;;;;;;;;5032803;28;20446;-81
2022/08/12 02:50:33;;;;;;;3.00;2.00;;;;;;;;;;5032864;28;20441;-81
2022/08/12 02:53:00;;;;;;;2.40;1.75;;;;;;;;;;5029764;28;20387;-81
2022/08/12 02:55:27;;;;;;;1.92;1.73;;;;;;;;;;5032340;28;20461;-81
2022/08/12 02:57:53;;;;;;;1.95;1.77;;;;;;;;;;5031358;28;21075;-81
2022/08/12 03:00:19;;;;;;;2.30;1.80;;;;;;;;;;5031437;28;20387;-81
2022/08/12 03:02:46;;;;;;;1.65;1.55;;;;;;;;;;5032364;28;20379;-81
2022/08/12 03:05:14;;;;;;;1.73;1.63;;;;;;;;;;5014653;28;20432;-81
2022/08/12 03:07:53;;;;;;;1.77;1.63;;;;;;;;;;5026482;28;20396;-81
2022/08/12 03:10:23;;;;;;;2.40;1.60;;;;;;;;;;5019285;28;20375;-81
2022/08/12 03:12:56;;;;;;;2.42;1.70;;;;;;;;;;5029896;28;20387;-81
2022/08/12 03:15:23;;;;;;;1.70;1.60;;;;;;;;;;5028271;28;20391;-81
2022/08/12 03:17:50;;;;;;;2.72;1.90;;;;;;;;;;5030097;28;20403;-81
2022/08/12 03:20:19;;;;;;;2.60;1.70;;;;;;;;;;5031126;28;20379;-81
2022/08/12 03:22:46;;;;;;;1.75;1.65;;;;;;;;;;5032364;28;20382;-81
2022/08/12 03:25:20;;;;;;;1.63;1.52;;;;;;;;;;5032201;28;20410;-81
2022/08/12 03:27:50;;;;;;;2.17;1.77;;;;;;;;;;5030389;28;20387;-80
2022/08/12 03:30:19;;;;;;;3.75;1.75;;;;;;;;;;5032150;28;20895;-81
2022/08/12 03:32:47;;;;;;;1.92;1.70;;;;;;;;;;5031821;28;20500;-81
2022/08/12 03:35:16;;;;;;;2.10;1.67;;;;;;;;;;5031972;28;20476;-81
2022/08/12 03:37:44;;;;;;;2.08;1.67;;;;;;;;;;5032092;28;20824;-81
2022/08/12 03:41:32;;;;;;;1.73;1.63;;;;;;;;;;5032107;28;20382;-80
2022/08/12 04:02:16;;;;;;;1.75;1.63;;;;;;;;;;5031956;28;20421;-81
2022/08/12 04:04:44;;;;;;;3.60;1.65;;;;;;;;;;5030960;28;20470;-80
2022/08/12 04:07:11;;;;;;;2.50;1.88;;;;;;;;;;5031857;28;20470;-80
2022/08/12 04:09:44;;;;;;;1.88;1.73;;;;;;;;;;5031694;28;20445;-80
2022/08/12 04:14:56;;;;;;;2.00;1.90;;;;;;;;;;5013323;28;20774;-81
2022/08/12 04:17:22;;;;;;;2.22;1.80;;;;;;;;;;5026877;28;20412;-81
2022/08/12 04:19:48;;;;;;;2.25;1.90;;;;;;;;;;5029057;28;20383;-80
2022/08/12 04:22:15;;;;;;;1.77;1.67;;;;;;;;;;5035037;28;20398;-80
2022/08/12 04:24:43;;;;;;;2.70;1.75;;;;;;;;;;5035402;28;20403;-80
2022/08/12 04:27:10;;;;;;;1.70;1.60;;;;;;;;;;5034315;28;20815;-80
2022/08/12 04:29:39;;;;;;;2.28;1.75;;;;;;;;;;5035551;28;20386;-80
2022/08/12 04:32:06;;;;;;;2.10;1.90;;;;;;;;;;5017805;28;20391;-81
2022/08/12 04:34:33;;;;;;;2.17;1.70;;;;;;;;;;5035308;28;20387;-80
2022/08/12 04:36:59;;;;;;;2.10;1.77;;;;;;;;;;5035172;28;20402;-80
2022/08/12 04:39:27;;;;;;;1.95;1.80;;;;;;;;;;5035289;28;20383;-80
2022/08/12 04:41:54;;;;;;;2.17;1.83;;;;;;;;;;5035129;28;20610;-80
2022/08/12 04:44:20;;;;;;;2.13;1.92;;;;;;;;;;5035045;28;20386;-80
2022/08/12 04:46:46;;;;;;;2.17;1.98;;;;;;;;;;5035232;28;20375;-80
2022/08/12 04:49:12;;;;;;;3.10;2.00;;;;;;;;;;5034888;28;20933;-80
2022/08/12 04:51:38;;;;;;;2.72;2.00;;;;;;;;;;5034774;28;20379;-81
2022/08/12 04:54:04;;;;;;;3.47;1.85;;;;;;;;;;5034958;28;20871;-80
2022/08/12 04:56:31;;;;;;;2.55;1.83;;;;;;;;;;5035180;28;20445;-80
2022/08/12 04:58:57;;;;;;;3.30;2.00;;;;;;;;;;5034930;28;20902;-80
2022/08/12 05:01:28;;;;;;;1.83;1.60;;;;;;;;;;5034763;28;20399;-80
2022/08/12 05:03:56;;;;;;;2.88;1.90;;;;;;;;;;5034341;28;20450;-80
2022/08/12 05:06:22;;;;;;;1.95;1.85;;;;;;;;;;5030796;28;20391;-81
2022/08/12 05:08:48;;;;;;;2.17;1.95;;;;;;;;;;5036717;28;20387;-81
2022/08/12 05:11:14;;;;;;;3.45;1.90;;;;;;;;;;5018223;28;20399;-80
2022/08/12 05:13:40;;;;;;;1.93;1.83;;;;;;;;;;5034122;28;20403;-80
2022/08/12 05:16:07;;;;;;;2.20;2.00;;;;;;;;;;5034117;28;20900;-80
2022/08/12 05:18:37;;;;;;;3.47;2.00;;;;;;;;;;5034316;28;20452;-80
2022/08/12 05:21:04;;;;;;;1.95;1.83;;;;;;;;;;5034453;28;20379;-80
2022/08/12 05:23:31;;;;;;;2.90;1.70;;;;;;;;;;5034365;28;20717;-80
2022/08/12 05:25:57;;;;;;;2.72;1.65;;;;;;;;;;5033034;28;20398;-81
2022/08/12 05:28:25;;;;;;;1.77;1.58;;;;;;;;;;5031502;28;20395;-80
2022/08/12 05:30:51;;;;;;;2.65;1.90;;;;;;;;;;5029937;28;20383;-79
2022/08/12 05:33:17;;;;;;;5.80;1.90;;;;;;;;;;5033869;28;20379;-80
2022/08/12 05:35:44;;;;;;;2.00;1.88;;;;;;;;;;5029745;28;20888;-80
2022/08/12 05:40:56;;;;;;;4.70;1.95;;;;;;;;;;5032222;28;20883;-80
2022/08/12 05:43:22;;;;;;;2.20;1.90;;;;;;;;;;5032188;28;20863;-80
2022/08/12 05:45:50;;;;;;;2.10;1.80;;;;;;;;;;5033948;28;20383;-80
2022/08/12 05:48:17;;;;;;;2.10;1.80;;;;;;;;;;5032997;28;21094;-80
2022/08/12 05:50:44;;;;;;;2.05;1.80;;;;;;;;;;5033434;28;20466;-81
2022/08/12 05:53:10;;;;;;;3.00;1.90;;;;;;;;;;5033809;28;20871;-80
2022/08/12 05:55:36;;;;;;;3.97;2.22;;;;;;;;;;5030557;28;20395;-80
2022/08/12 05:58:03;;;;;;;3.55;2.30;;;;;;;;;;5029833;28;20406;-81
2022/08/12 06:00:30;;;;;;;2.90;1.80;;;;;;;;;;5032983;28;20383;-81
2022/08/12 06:02:59;;;;;;;3.38;1.90;;;;;;;;;;5028072;28;20727;-80
2022/08/12 06:05:35;;;;;;;2.40;2.17;;;;;;;;;;5013674;28;20878;-80
2022/08/12 06:08:04;;;;;;;2.60;1.95;;;;;;;;;;5027944;28;20434;-82
2022/08/12 06:10:30;;;;;;;2.83;2.20;;;;;;;;;;5033554;28;20429;-81
2022/08/12 06:12:57;;;;;;;2.00;1.67;;;;;;;;;;5033514;28;20379;-80
2022/08/12 06:15:23;;;;;;;3.58;1.95;;;;;;;;;;5033300;28;20788;-80
2022/08/12 06:17:49;;;;;;;3.73;2.20;;;;;;;;;;5033334;28;20467;-80
2022/08/12 06:20:15;;;;;;;2.78;2.10;;;;;;;;;;5033310;28;20877;-80
2022/08/12 06:22:42;;;;;;;2.45;2.25;;;;;;;;;;5032862;28;20378;-80
2022/08/12 06:25:09;;;;;;;2.88;1.88;;;;;;;;;;5033185;28;20417;-80
2022/08/12 06:27:47;;;;;;;2.33;1.80;;;;;;;;;;5033473;28;20432;-80
2022/08/12 06:30:14;;;;;;;2.22;2.03;;;;;;;;;;5033107;28;20394;-80
2022/08/12 06:32:42;;;;;;;1.97;1.70;;;;;;;;;;5033472;28;20449;-80
2022/08/12 06:35:08;;;;;;;3.10;1.88;;;;;;;;;;5032974;28;20414;-80
2022/08/12 06:37:40;;;;;;;2.78;1.98;;;;;;;;;;5026039;28;20418;-79
2022/08/12 06:40:10;;;;;;;2.10;1.98;;;;;;;;;;5011646;28;20862;-81
2022/08/12 06:42:51;;;;;;;2.05;1.83;;;;;;;;;;5031722;28;20386;-81
2022/08/12 06:45:25;;;;;;;2.90;1.90;;;;;;;;;;5032770;28;20376;-81
2022/08/12 06:47:52;;;;;;;2.97;2.13;;;;;;;;;;5028017;28;20449;-82
2022/08/12 06:50:18;;;;;;;2.13;2.00;;;;;;;;;;5032464;28;20375;-82
2022/08/12 06:52:45;;;;;;;4.20;2.00;;;;;;;;;;5032704;28;20394;-82
2022/08/12 06:55:21;;;;;;;2.80;2.10;;;;;;;;;;5032553;28;20398;-82
2022/08/12 06:58:00;;;;;;;4.70;2.30;;;;;;;;;;5014779;28;20764;-82
2022/08/12 07:00:32;;;;;;;2.80;2.15;;;;;;;;;;5031592;28;20878;-82
2022/08/12 07:02:59;;;;;;;4.25;2.05;;;;;;;;;;5032582;28;20375;-82
2022/08/12 07:05:26;;;;;;;2.78;2.00;;;;;;;;;;5032332;28;20442;-82
2022/08/12 07:07:54;;;;;;;2.30;2.00;;;;;;;;;;5032195;28;20437;-82
2022/08/12 07:10:24;;;;;;;2.00;1.77;;;;;;;;;;5032384;28;20391;-83
2022/08/12 07:12:53;;;;;;;4.60;2.03;;;;;;;;;;5032498;28;20507;-83
2022/08/12 07:15:21;;;;;;;2.33;1.98;;;;;;;;;;5032177;28;20777;-83
2022/08/12 07:17:47;;;;;;;3.72;2.20;;;;;;;;;;5032691;28;20442;-82
2022/08/12 07:20:13;;;;;;;2.97;2.00;;;;;;;;;;5032242;28;20387;-82
2022/08/12 07:22:40;;;;;;;4.38;2.00;;;;;;;;;;5014523;28;20387;-82
2022/08/12 07:27:54;;;;;;;4.78;1.80;;;;;;;;;;5032205;28;20793;-82
2022/08/12 07:30:21;;;;;;;3.15;1.95;;;;;;;;;;5032161;28;20383;-82
2022/08/12 07:32:50;;;;;;;2.95;1.88;;;;;;;;;;5032209;28;20379;-82
2022/08/12 07:35:18;;;;;;;3.42;1.98;;;;;;;;;;5032042;28;20425;-82
2022/08/12 07:37:46;;;;;;;3.13;1.80;;;;;;;;;;5032035;28;20477;-82
2022/08/12 07:40:12;;;;;;;3.35;2.00;;;;;;;;;;5032026;28;20411;-82
2022/08/12 07:42:39;;;;;;;3.37;2.00;;;;;;;;;;5031904;28;20435;-83
2022/08/12 07:45:06;;;;;;;3.72;1.92;;;;;;;;;;5032021;28;20466;-82
2022/08/12 07:47:33;;;;;;;2.63;1.80;;;;;;;;;;5032066;28;20383;-82
2022/08/12 07:50:00;;;;;;;3.13;2.20;;;;;;;;;;5031899;28;20458;-82
2022/08/12 07:52:26;;;;;;;3.15;1.90;;;;;;;;;;5034397;28;20441;-82
2022/08/12 07:54:53;;;;;;;3.58;1.85;;;;;;;;;;5035901;28;20428;-82
2022/08/12 07:57:19;;;;;;;2.42;1.83;;;;;;;;;;5035928;28;20445;-83
2022/08/12 07:59:45;;;;;;;2.95;1.80;;;;;;;;;;5035856;28;20383;-83
2022/08/12 08:02:11;;;;;;;3.13;1.93;;;;;;;;;;5035928;28;20450;-83
2022/08/12 08:04:56;;;;;;;2.75;1.85;;;;;;;;;;5035710;28;20375;-83
2022/08/12 08:07:23;;;;;;;2.58;1.75;;;;;;;;;;5036289;28;20395;-83
2022/08/12 08:09:52;;;;;;;2.60;1.80;;;;;;;;;;5035727;28;20395;-82
2022/08/12 08:15:04;;;;;;;2.40;1.80;;;;;;;;;;5035770;28;20409;-83
2022/08/12 08:17:30;;;;;;;2.67;1.85;;;;;;;;;;5035839;28;20449;-83
2022/08/12 08:19:56;;;;;;;2.10;1.67;;;;;;;;;;5018071;28;20785;-83
2022/08/12 08:22:22;;;;;;;1.92;1.63;;;;;;;;;;5035584;28;20383;-82
2022/08/12 08:24:55;;;;;;;1.65;1.40;;;;;;;;;;5035395;28;20470;-83
2022/08/12 08:27:21;;;;;;;2.25;1.60;;;;;;;;;;5035055;28;20383;-83
2022/08/12 08:29:47;;;;;;;2.00;1.80;;;;;;;;;;5027093;28;20376;-83
2022/08/12 08:32:13;;;;;;;2.35;1.52;;;;;;;;;;5035366;28;20379;-83
2022/08/12 08:34:40;;;;;;;2.10;1.33;;;;;;;;;;5035387;28;20464;-83
2022/08/12 08:37:06;;;;;;;2.63;1.50;;;;;;;;;;5035277;28;20403;-83
2022/08/12 08:39:33;;;;;;;2.07;1.70;;;;;;;;;;5034826;28;20510;-83
2022/08/12 08:44:43;;;;;;;1.97;1.37;;;;;;;;;;5035170;28;20421;-83
2022/08/12 08:47:10;;;;;;;2.25;1.40;;;;;;;;;;5035262;28;20445;-83
2022/08/12 08:49:36;;;;;;;1.75;1.65;;;;;;;;;;5035005;28;20441;-84
2022/08/12 08:52:06;;;;;;;5.88;1.70;;;;;;;;;;5035109;28;20390;-84
2022/08/12 08:54:33;;;;;;;1.70;1.60;;;;;;;;;;5034850;28;20459;-84
2022/08/12 08:57:02;;;;;;;2.20;1.52;;;;;;;;;;5034740;28;21025;-84
2022/08/12 08:59:28;;;;;;;3.15;1.55;;;;;;;;;;5034917;28;20466;-82
2022/08/12 09:01:54;;;;;;;2.13;1.65;;;;;;;;;;5038126;28;20442;-84
2022/08/12 09:04:22;;;;;;;1.77;1.50;;;;;;;;;;5034643;28;20379;-84
2022/08/12 09:06:50;;;;;;;3.30;1.60;;;;;;;;;;5034726;28;20503;-84
2022/08/12 09:09:16;;;;;;;3.97;1.50;;;;;;;;;;5034749;28;20375;-84
2022/08/12 09:14:27;;;;;;;1.60;1.50;;;;;;;;;;5034914;28;20726;-83
2022/08/12 09:16:53;;;;;;;2.53;1.77;;;;;;;;;;5034509;28;20383;-84
2022/08/12 09:19:19;;;;;;;2.47;1.38;;;;;;;;;;5034598;28;20375;-84
2022/08/12 09:21:46;;;;;;;2.28;1.30;;;;;;;;;;5034568;28;20436;-85
2022/08/12 09:24:17;;;;;;;2.53;1.42;;;;;;;;;;5034183;28;20395;-84
2022/08/12 09:26:44;;;;;;;1.63;1.30;;;;;;;;;;5016637;28;20460;-84
2022/08/12 09:29:12;;;;;;;2.10;1.52;;;;;;;;;;5034369;28;20379;-83
2022/08/12 09:31:40;;;;;;;1.40;1.30;;;;;;;;;;5034471;28;20505;-85
2022/08/12 09:34:09;;;;;;;1.60;1.50;;;;;;;;;;5034146;28;20375;-85
2022/08/12 09:36:37;;;;;;;1.60;1.50;;;;;;;;;;5034356;28;20829;-84
2022/08/12 09:39:03;;;;;;;1.95;1.42;;;;;;;;;;5034212;28;20410;-85
2022/08/12 09:41:37;;;;;;;3.05;1.45;;;;;;;;;;5034116;28;20452;-85
2022/08/12 09:46:48;;;;;;;1.50;1.40;;;;;;;;;;5034411;28;20714;-85
2022/08/12 09:49:14;;;;;;;3.20;1.50;;;;;;;;;;5034061;28;20380;-86
2022/08/12 09:51:42;;;;;;;3.40;1.50;;;;;;;;;;5033929;28;20788;-86
2022/08/12 09:54:11;;;;;;;1.47;1.37;;;;;;;;;;5033895;28;20371;-84
2022/08/12 09:56:40;;;;;;;2.10;1.40;;;;;;;;;;5033820;28;20407;-85
2022/08/12 09:59:08;;;;;;;2.65;1.30;;;;;;;;;;5034139;28;20406;-86
2022/08/12 10:01:37;;;;;;;1.77;1.35;;;;;;;;;;5033674;28;20379;-84
2022/08/12 10:04:08;;;;;;;2.90;1.30;;;;;;;;;;5033648;28;20768;-85
2022/08/12 10:06:34;;;;;;;2.70;1.30;;;;;;;;;;5033743;28;20728;-85
2022/08/12 10:09:00;;;;;;;2.90;1.20;;;;;;;;;;5033693;28;20375;-87
2022/08/12 10:14:11;;;;;;;1.83;1.40;;;;;;;;;;5032919;28;20875;-86
2022/08/12 10:16:42;;;;;;;3.50;1.53;;;;;;;;;;5033530;28;20376;-84
2022/08/12 10:19:08;;;;;;;2.13;1.38;;;;;;;;;;5033511;28;20857;-83
2022/08/12 10:21:35;;;;;;;1.55;1.13;;;;;;;;;;5033503;28;20375;-83
2022/08/12 10:24:11;;;;;;;2.03;1.15;;;;;;;;;;5032692;28;20375;-84
2022/08/12 10:29:40;;;;;;;2.75;1.05;;;;;;;;;;5033225;28;20414;-85
2022/08/12 10:32:08;;;;;;;1.98;1.30;;;;;;;;;;5033404;28;20947;-85
2022/08/12 10:34:34;;;;;;;1.92;1.20;;;;;;;;;;5033093;28;20385;-84
2022/08/12 10:37:01;;;;;;;3.40;1.25;;;;;;;;;;5033318;28;20413;-84
2022/08/12 10:39:31;;;;;;;1.20;1.10;;;;;;;;;;5033049;28;20860;-85
2022/08/12 10:44:42;;;;;;;2.60;1.15;;;;;;;;;;5033037;28;20379;-84
2022/08/12 10:47:08;;;;;;;3.08;1.30;;;;;;;;;;5015173;28;20813;-85
2022/08/12 10:49:35;;;;;;;2.00;1.20;;;;;;;;;;5032377;28;20390;-85
2022/08/12 10:52:02;;;;;;;1.83;1.02;;;;;;;;;;5032997;28;20461;-84
2022/08/12 10:54:28;;;;;;;2.17;1.27;;;;;;;;;;5032826;28;20391;-85
2022/08/12 10:56:56;;;;;;;2.40;1.10;;;;;;;;;;5032298;28;20498;-85
2022/08/12 10:59:23;;;;;;;3.65;1.40;;;;;;;;;;5032699;28;20379;-83
2022/08/12 11:01:51;;;;;;;3.72;1.20;;;;;;;;;;5032616;28;20387;-84
2022/08/12 11:04:17;;;;;;;1.02;1.00;;;;;;;;;;5032521;28;20382;-83
2022/08/12 11:06:47;;;;;;;2.10;1.20;;;;;;;;;;5032508;28;20473;-84
2022/08/12 11:09:17;;;;;;;1.90;1.20;;;;;;;;;;5032719;28;20375;-87
2022/08/12 11:11:47;;;;;;;1.40;1.15;;;;;;;;;;5032712;28;20375;-85
2022/08/12 11:14:16;;;;;;;2.28;1.30;;;;;;;;;;5032495;28;20379;-85
2022/08/12 11:16:42;;;;;;;5.00;1.42;;;;;;;;;;5032326;28;20462;-85
2022/08/12 11:19:08;;;;;;;2.17;1.25;;;;;;;;;;5032519;28;20391;-85
2022/08/12 11:21:34;;;;;;;2.28;1.20;;;;;;;;;;5032342;28;20383;-84
2022/08/12 11:24:00;;;;;;;1.40;1.10;;;;;;;;;;5032114;28;20414;-84
2022/08/12 11:26:26;;;;;;;2.45;1.10;;;;;;;;;;5031753;28;20449;-84
2022/08/12 11:28:52;;;;;;;2.80;1.20;;;;;;;;;;5032143;28;20763;-84
2022/08/12 11:31:18;;;;;;;1.48;1.20;;;;;;;;;;5032217;28;20391;-84
2022/08/12 11:33:44;;;;;;;3.72;1.45;;;;;;;;;;5032038;28;20741;-85
2022/08/12 11:36:10;;;;;;;2.80;1.40;;;;;;;;;;5032413;28;20405;-85
2022/08/12 11:38:36;;;;;;;1.80;0.90;;;;;;;;;;5032115;28;20977;-85
2022/08/12 11:41:04;;;;;;;3.45;1.27;;;;;;;;;;5032085;28;20446;-85
2022/08/12 11:43:30;;;;;;;2.40;1.20;;;;;;;;;;5032146;28;20394;-85
2022/08/12 11:45:56;;;;;;;3.42;1.25;;;;;;;;;;5022532;28;20487;-83
2022/08/12 11:48:22;;;;;;;3.10;1.25;;;;;;;;;;5027841;28;20464;-82
2022/08/12 11:50:48;;;;;;;2.15;1.20;;;;;;;;;;5018891;28;20515;-85
2022/08/12 11:53:14;;;;;;;2.28;1.15;;;;;;;;;;5026174;28;20398;-85
2022/08/12 11:55:40;;;;;;;1.45;1.05;;;;;;;;;;5011653;28;20771;-85
2022/08/12 11:58:06;;;;;;;1.52;1.25;;;;;;;;;;5027569;28;20499;-85
2022/08/12 12:00:32;;;;;;;1.17;0.95;;;;;;;;;;5013567;28;20450;-85
2022/08/12 12:02:58;;;;;;;4.03;1.10;;;;;;;;;;5013132;28;20463;-87
2022/08/12 12:05:24;;;;;;;2.83;1.05;;;;;;;;;;5014734;28;20475;-86
2022/08/12 12:07:50;;;;;;;3.25;1.20;;;;;;;;;;5024708;28;20381;-85
2022/08/12 12:10:18;;;;;;;1.88;1.00;;;;;;;;;;5026569;28;20869;-87
2022/08/12 12:12:44;;;;;;;2.35;1.10;;;;;;;;;;5014664;28;20447;-86
2022/08/12 12:15:11;;;;;;;1.10;0.90;;;;;;;;;;5014135;28;20383;-87
2022/08/12 12:17:38;;;;;;;1.10;1.00;;;;;;;;;;5013170;28;20416;-86
2022/08/12 12:20:14;;;;;;;1.30;0.98;;;;;;;;;;5001165;28;20388;-85
2022/08/12 12:22:40;;;;;;;1.45;1.00;;;;;;;;;;5014037;28;20778;-85
2022/08/12 12:25:07;;;;;;;1.93;0.90;;;;;;;;;;5014329;28;20409;-85
2022/08/12 12:27:50;;;;;;;2.85;1.20;;;;;;;;;;5020459;28;20480;-86
2022/08/12 12:30:16;;;;;;;1.98;1.00;;;;;;;;;;5013392;28;20801;-86
2022/08/12 12:32:42;;;;;;;0.93;0.93;;;;;;;;;;5013716;28;20729;-85
2022/08/12 12:35:08;;;;;;;1.50;1.08;;;;;;;;;;5015273;28;20527;-86
2022/08/12 12:37:34;;;;;;;2.20;1.02;;;;;;;;;;5032029;28;20414;-85
2022/08/12 12:40:00;;;;;;;2.67;1.30;;;;;;;;;;5034778;28;20875;-85
2022/08/12 12:42:26;;;;;;;2.13;1.08;;;;;;;;;;5035108;28;20371;-84
2022/08/12 12:44:52;;;;;;;3.70;1.23;;;;;;;;;;5035109;28;20924;-85
2022/08/12 12:47:20;;;;;;;2.42;1.15;;;;;;;;;;5026959;28;20385;-85
2022/08/12 12:49:46;;;;;;;3.20;1.13;;;;;;;;;;5033127;28;20387;-86
2022/08/12 12:52:12;;;;;;;2.65;1.20;;;;;;;;;;5017653;28;20402;-86
2022/08/12 12:54:51;;;;;;;2.85;1.17;;;;;;;;;;5034586;28;20391;-85
2022/08/12 12:57:17;;;;;;;1.20;1.00;;;;;;;;;;5034962;28;20407;-84
2022/08/12 13:00:13;;;;;;;1.10;0.90;;;;;;;;;;5034878;28;20817;-86
2022/08/12 13:02:29;;;;;;;1.98;1.10;;;;;;;;;;5034658;28;20441;-86
2022/08/12 13:04:55;;;;;;;1.38;0.82;;;;;;;;;;5034840;28;20383;-86
2022/08/12 13:07:21;;;;;;;3.47;1.38;;;;;;;;;;5034747;28;20387;-86
2022/08/12 13:09:47;;;;;;;2.20;0.97;;;;;;;;;;5034681;28;20756;-84
2022/08/12 13:12:13;;;;;;;1.80;1.00;;;;;;;;;;5034743;28;20506;-84
2022/08/12 13:14:39;;;;;;;3.08;1.38;;;;;;;;;;5034625;28;20764;-85
2022/08/12 13:17:05;;;;;;;2.63;1.10;;;;;;;;;;5034466;28;20888;-85
2022/08/12 13:19:34;;;;;;;2.83;1.20;;;;;;;;;;5034922;28;20387;-85
2022/08/12 13:22:16;;;;;;;1.93;0.93;;;;;;;;;;5018700;28;20386;-86
2022/08/12 13:24:43;;;;;;;1.50;1.00;;;;;;;;;;5025563;28;20391;-86
2022/08/12 13:27:09;;;;;;;1.83;1.20;;;;;;;;;;5034352;28;20387;-86
2022/08/12 13:29:37;;;;;;;1.40;1.10;;;;;;;;;;5022362;28;20393;-86
2022/08/12 13:32:04;;;;;;;2.65;1.15;;;;;;;;;;5012680;28;20395;-84
2022/08/12 13:34:31;;;;;;;1.37;0.97;;;;;;;;;;5018244;28;20399;-84
2022/08/12 13:36:57;;;;;;;2.03;1.10;;;;;;;;;;5028663;28;20379;-83
2022/08/12 13:39:24;;;;;;;1.97;0.90;;;;;;;;;;5031788;28;20390;-83
2022/08/12 13:41:50;;;;;;;2.42;1.00;;;;;;;;;;5026727;28;20848;-83
2022/08/12 13:44:16;;;;;;;2.60;1.10;;;;;;;;;;5021656;28;21013;-83
2022/08/12 13:46:42;;;;;;;2.40;0.80;;;;;;;;;;5034040;28;20383;-83
2022/08/12 13:49:10;;;;;;;2.17;0.90;;;;;;;;;;5020556;28;20488;-83
2022/08/12 13:51:36;;;;;;;1.83;1.10;;;;;;;;;;5022895;28;20403;-83
2022/08/12 13:54:05;;;;;;;3.57;1.10;;;;;;;;;;5033821;28;20402;-82
2022/08/12 13:56:32;;;;;;;2.75;0.98;;;;;;;;;;5029246;28;20482;-83
2022/08/12 13:59:00;;;;;;;2.28;0.90;;;;;;;;;;5032599;28;20406;-83
2022/08/12 14:01:27;;;;;;;4.50;1.30;;;;;;;;;;5032281;28;20379;-83
2022/08/12 14:03:53;;;;;;;4.63;1.45;;;;;;;;;;5030516;28;20379;-83
2022/08/12 14:06:20;;;;;;;2.20;1.00;;;;;;;;;;5019944;28;20385;-84
2022/08/12 14:08:50;;;;;;;2.00;0.90;;;;;;;;;;5029101;28;20450;-83
2022/08/12 14:11:17;;;;;;;2.20;1.10;;;;;;;;;;5032442;28;20398;-83
2022/08/12 14:13:43;;;;;;;3.00;0.90;;;;;;;;;;5033411;28;20379;-84
2022/08/12 14:16:09;;;;;;;1.02;0.90;;;;;;;;;;5033532;28;20383;-83
2022/08/12 14:18:38;;;;;;;1.73;1.03;;;;;;;;;;5033341;28;20776;-83
2022/08/12 14:21:11;;;;;;;1.20;0.90;;;;;;;;;;5033129;28;20742;-83
2022/08/12 14:23:49;;;;;;;0.90;0.80;;;;;;;;;;5033267;28;20432;-84
2022/08/12 14:26:16;;;;;;;1.15;0.90;;;;;;;;;;5032818;28;20426;-83
2022/08/12 14:28:43;;;;;;;1.30;0.85;;;;;;;;;;5033158;28;20436;-83
2022/08/12 14:31:13;;;;;;;2.10;1.20;;;;;;;;;;5033281;28;20380;-83
2022/08/12 14:33:47;;;;;;;3.13;1.50;;;;;;;;;;5032708;28;20411;-84
2022/08/12 14:36:14;;;;;;;2.47;0.95;;;;;;;;;;5023332;28;20379;-85
2022/08/12 14:38:42;;;;;;;1.85;1.02;;;;;;;;;;5032876;28;20406;-85
2022/08/12 14:41:12;;;;;;;1.13;0.87;;;;;;;;;;5032959;28;20387;-85
2022/08/12 14:43:38;;;;;;;1.35;0.90;;;;;;;;;;5021908;28;20458;-84
2022/08/12 14:46:05;;;;;;;2.28;0.98;;;;;;;;;;5028558;28;20379;-85
2022/08/12 14:48:31;;;;;;;1.40;1.00;;;;;;;;;;5032752;28;20383;-84
2022/08/12 14:50:57;;;;;;;1.88;0.98;;;;;;;;;;5032584;28;20379;-86
2022/08/12 14:53:24;;;;;;;0.73;0.70;;;;;;;;;;5032714;28;20395;-84
2022/08/12 14:55:50;;;;;;;3.40;1.00;;;;;;;;;;5032619;28;20441;-84
2022/08/12 14:58:16;;;;;;;1.50;0.75;;;;;;;;;;5031683;28;20411;-84
2022/08/12 15:03:28;;;;;;;2.00;1.00;;;;;;;;;;5029669;28;20417;-84
2022/08/12 15:05:58;;;;;;;2.27;0.90;;;;;;;;;;5013051;28;20387;-85
2022/08/12 15:08:24;;;;;;;2.60;1.10;;;;;;;;;;5027017;28;20470;-84
2022/08/12 15:10:52;;;;;;;2.17;0.83;;;;;;;;;;5028106;28;20415;-84
2022/08/12 15:13:19;;;;;;;0.90;0.90;;;;;;;;;;5032193;28;20383;-83
2022/08/12 15:15:45;;;;;;;2.60;0.93;;;;;;;;;;5025930;28;20391;-82
2022/08/12 15:18:12;;;;;;;3.08;1.00;;;;;;;;;;5026836;28;20410;-84
2022/08/12 15:20:38;;;;;;;1.83;1.10;;;;;;;;;;5032341;28;20994;-84
2022/08/12 15:23:09;;;;;;;1.60;0.90;;;;;;;;;;5032173;28;20437;-84
2022/08/12 15:25:36;;;;;;;2.25;0.88;;;;;;;;;;5012513;28;20782;-88
2022/08/12 15:28:01;;;;;;;2.37;1.00;;;;;;;;;;5027152;28;20394;-84
2022/08/12 15:30:28;;;;;;;1.67;0.90;;;;;;;;;;5031979;28;20387;-84
2022/08/12 15:32:57;;;;;;;2.80;1.27;;;;;;;;;;5032267;28;20383;-84
2022/08/12 15:35:26;;;;;;;1.60;1.05;;;;;;;;;;5032020;28;20887;-85
2022/08/12 15:38:00;;;;;;;4.35;1.15;;;;;;;;;;5032481;28;20403;-83
2022/08/12 15:40:26;;;;;;;2.05;1.10;;;;;;;;;;5020664;28;20770;-82
2022/08/12 15:42:53;;;;;;;1.35;0.93;;;;;;;;;;5032039;28;20383;-83
2022/08/12 15:45:20;;;;;;;2.08;0.90;;;;;;;;;;5032059;28;20375;-83
2022/08/12 15:47:46;;;;;;;1.15;0.98;;;;;;;;;;5029530;28;20419;-83
2022/08/12 15:50:12;;;;;;;2.17;0.70;;;;;;;;;;5019098;28;20390;-84
2022/08/12 15:52:38;;;;;;;1.80;0.90;;;;;;;;;;5031861;28;20375;-83
2022/08/12 15:55:07;;;;;;;1.30;0.90;;;;;;;;;;5024348;28;20417;-84
2022/08/12 15:57:33;;;;;;;1.57;0.90;;;;;;;;;;5024260;28;20421;-84
2022/08/12 15:59:59;;;;;;;0.90;0.80;;;;;;;;;;5030096;28;20922;-83
2022/08/12 16:02:25;;;;;;;2.00;0.90;;;;;;;;;;5032120;28;20387;-83
2022/08/12 16:04:51;;;;;;;1.10;0.90;;;;;;;;;;5031727;28;20379;-83
2022/08/12 16:07:23;;;;;;;2.30;0.90;;;;;;;;;;5031892;28;20387;-82
2022/08/12 16:09:49;;;;;;;1.85;1.10;;;;;;;;;;5031801;28;20383;-82
2022/08/12 16:12:15;;;;;;;2.92;1.00;;;;;;;;;;5032113;28;20449;-82
2022/08/12 16:14:41;;;;;;;2.40;1.00;;;;;;;;;;5035331;28;20395;-83
2022/08/12 16:17:08;;;;;;;1.67;1.10;;;;;;;;;;5035377;28;20386;-84
2022/08/12 16:19:35;;;;;;;3.20;1.20;;;;;;;;;;5035700;28;20389;-84
2022/08/12 16:22:01;;;;;;;2.97;1.25;;;;;;;;;;5035643;28;20406;-83
2022/08/12 16:24:27;;;;;;;1.58;1.10;;;;;;;;;;5034281;28;20398;-83
2022/08/12 16:26:53;;;;;;;3.00;1.20;;;;;;;;;;5031765;28;20405;-85
2022/08/12 16:29:28;;;;;;;2.60;1.00;;;;;;;;;;5033818;28;20391;-83
2022/08/12 16:31:54;;;;;;;2.10;1.10;;;;;;;;;;5034994;28;20405;-84
2022/08/12 16:34:20;;;;;;;1.00;0.88;;;;;;;;;;5034699;28;20394;-82
2022/08/12 16:36:49;;;;;;;1.90;1.17;;;;;;;;;;5032941;28;20391;-84
2022/08/12 16:39:15;;;;;;;1.10;1.00;;;;;;;;;;5032629;28;20507;-84